Time;durP1;ratioP1;P1;durP2;ratioP2;P2;SDS_P1;SDS_P2;PMS_P1;PMS_P2;Temp;Humidity;BMP_temperature;BMP_pressure;BME280_temperature;BME280_humidity;BME280_pressure;Samples;Min_cycle;Max_cycle;Signal;HPM_P1;HPM_P2
2023/11/25 00:00:31;;;;;;;1.17;0.65;;;;;;;0.47;100.00;99396.25;5087976;28;20193;-67
2023/11/25 00:03:04;;;;;;;0.95;0.68;;;;;;;0.49;100.00;99399.53;5081018;28;20219;-66
2023/11/25 00:05:38;;;;;;;1.23;1.13;;;;;;;0.47;100.00;99396.25;5080140;28;20669;-67
2023/11/25 00:08:11;;;;;;;1.35;0.73;;;;;;;0.47;100.00;99406.88;5081577;28;20210;-68
2023/11/25 00:10:47;;;;;;;1.13;0.75;;;;;;;0.47;100.00;99404.22;5081751;28;20197;-66
2023/11/25 00:13:21;;;;;;;0.90;0.55;;;;;;;0.44;100.00;99408.88;5085117;28;20297;-67
2023/11/25 00:15:58;;;;;;;1.10;1.00;;;;;;;0.39;100.00;99405.06;5072529;28;20614;-68
2023/11/25 00:18:32;;;;;;;0.90;0.60;;;;;;;0.42;100.00;99405.56;5073096;28;20191;-67
2023/11/25 00:21:06;;;;;;;1.00;0.73;;;;;;;0.46;100.00;99415.88;5080283;28;20270;-67
2023/11/25 00:23:40;;;;;;;16.92;0.95;;;;;;;0.37;100.00;99417.75;5071456;28;20210;-67
2023/11/25 00:26:14;;;;;;;0.80;0.50;;;;;;;0.46;100.00;99432.66;5068068;28;20215;-66
2023/11/25 00:28:58;;;;;;;1.30;0.90;;;;;;;0.47;100.00;99444.97;5086080;28;20183;-67
2023/11/25 00:31:37;;;;;;;1.20;0.80;;;;;;;0.47;100.00;99449.47;5072989;28;20229;-67
2023/11/25 00:34:09;;;;;;;0.80;0.50;;;;;;;0.42;100.00;99442.84;5088612;28;20213;-65
2023/11/25 00:36:46;;;;;;;1.15;1.05;;;;;;;0.35;100.00;99449.84;5080041;28;20211;-68
2023/11/25 00:39:19;;;;;;;0.80;0.50;;;;;;;0.41;100.00;99446.50;5090453;28;20252;-66
2023/11/25 00:41:54;;;;;;;0.85;0.52;;;;;;;0.36;100.00;99456.81;5068342;28;20666;-67
2023/11/25 00:44:25;;;;;;;1.00;0.60;;;;;;;0.46;100.00;99458.44;5091233;28;20237;-66
2023/11/25 00:46:58;;;;;;;1.30;1.08;;;;;;;0.42;100.00;99466.78;5089324;28;20206;-67
2023/11/25 00:49:38;;;;;;;3.92;0.82;;;;;;;0.40;100.00;99471.44;5099436;28;20198;-69
2023/11/25 00:52:14;;;;;;;27.38;1.70;;;;;;;0.40;100.00;99466.09;5064260;28;20234;-68
2023/11/25 00:54:47;;;;;;;2.60;1.67;;;;;;;0.41;100.00;99481.09;5078954;28;20247;-68
2023/11/25 00:57:21;;;;;;;0.80;0.50;;;;;;;0.37;100.00;99485.09;5068066;28;20231;-67
2023/11/25 00:59:53;;;;;;;1.20;0.60;;;;;;;0.34;100.00;99477.44;5066301;28;20198;-67
2023/11/25 01:02:27;;;;;;;3.05;0.82;;;;;;;0.39;100.00;99484.91;5070123;28;20237;-67
2023/11/25 01:05:02;;;;;;;0.80;0.60;;;;;;;0.36;100.00;99478.09;5061056;28;20235;-67
2023/11/25 01:07:38;;;;;;;1.25;0.73;;;;;;;0.39;100.00;99490.22;5043953;28;20191;-66
2023/11/25 01:10:12;;;;;;;0.80;0.50;;;;;;;0.32;100.00;99494.59;5071130;28;20195;-66
2023/11/25 01:12:48;;;;;;;0.80;0.50;;;;;;;0.28;100.00;99499.44;5074786;28;20209;-67
2023/11/25 01:15:24;;;;;;;0.80;0.50;;;;;;;0.22;100.00;99504.59;5059401;28;20230;-66
2023/11/25 01:17:57;;;;;;;0.80;0.50;;;;;;;0.25;100.00;99512.22;5088329;28;20202;-69
2023/11/25 01:20:30;;;;;;;0.80;0.50;;;;;;;0.28;100.00;99510.06;5065951;28;20294;-68
2023/11/25 01:23:02;;;;;;;1.02;0.60;;;;;;;0.36;100.00;99518.03;5079216;28;20241;-66
2023/11/25 01:25:35;;;;;;;0.80;0.50;;;;;;;0.40;100.00;99524.66;5069190;28;20242;-67
2023/11/25 01:28:13;;;;;;;0.80;0.50;;;;;;;0.48;100.00;99521.16;5064546;28;20196;-68
2023/11/25 01:30:47;;;;;;;0.80;0.50;;;;;;;0.52;100.00;99521.63;5082426;28;20453;-68
2023/11/25 01:33:21;;;;;;;0.80;0.50;;;;;;;0.63;100.00;99519.41;5062859;28;20206;-68
2023/11/25 01:35:53;;;;;;;1.38;0.70;;;;;;;0.67;100.00;99525.25;5071033;28;20200;-67
2023/11/25 01:38:28;;;;;;;2.55;1.02;;;;;;;0.68;100.00;99521.56;5081065;28;20683;-67
2023/11/25 01:41:02;;;;;;;9.18;0.68;;;;;;;0.71;100.00;99521.25;5070164;28;20194;-68
2023/11/25 01:43:41;;;;;;;2.45;0.98;;;;;;;0.75;100.00;99531.38;5084939;28;20199;-68
2023/11/25 01:46:28;;;;;;;0.80;0.60;;;;;;;0.86;100.00;99530.16;5089061;28;20229;-68
2023/11/25 01:49:00;;;;;;;0.93;0.60;;;;;;;0.81;100.00;99545.84;5064983;28;20240;-69
2023/11/25 01:51:38;;;;;;;0.82;0.60;;;;;;;0.82;100.00;99539.50;5083358;28;20186;-67
2023/11/25 01:54:10;;;;;;;0.90;0.60;;;;;;;0.86;100.00;99538.16;5069705;28;20618;-68
2023/11/25 01:56:45;;;;;;;1.27;0.85;;;;;;;0.86;100.00;99538.16;5070186;28;20191;-66
2023/11/25 01:59:22;;;;;;;0.80;0.60;;;;;;;0.87;100.00;99542.50;5074827;28;20202;-66
2023/11/25 02:01:55;;;;;;;0.95;0.85;;;;;;;0.89;100.00;99535.13;5087265;28;20187;-68
2023/11/25 02:04:29;;;;;;;0.95;0.82;;;;;;;0.88;100.00;99544.13;5085490;28;20204;-68
2023/11/25 02:07:02;;;;;;;4.82;0.88;;;;;;;0.88;100.00;99533.47;5069571;28;20204;-69
2023/11/25 02:09:44;;;;;;;0.85;0.60;;;;;;;0.95;100.00;99534.44;5080211;28;20543;-66
2023/11/25 02:12:16;;;;;;;1.23;1.13;;;;;;;0.92;100.00;99545.44;5076605;28;20200;-67
2023/11/25 02:14:53;;;;;;;4.10;1.90;;;;;;;0.93;100.00;99546.25;5071871;28;20228;-67
2023/11/25 02:17:26;;;;;;;0.80;0.50;;;;;;;0.93;100.00;99552.44;5053931;28;20281;-67
2023/11/25 02:20:02;;;;;;;0.80;0.60;;;;;;;0.98;100.00;99550.06;5068139;28;20189;-66
2023/11/25 02:22:37;;;;;;;1.38;0.70;;;;;;;1.04;100.00;99562.72;5060430;28;20199;-68
2023/11/25 02:25:14;;;;;;;0.80;0.50;;;;;;;1.06;100.00;99552.72;5087784;28;20581;-68
2023/11/25 02:27:49;;;;;;;0.90;0.60;;;;;;;1.03;100.00;99563.69;5077710;28;20708;-67
2023/11/25 02:30:23;;;;;;;0.80;0.50;;;;;;;1.00;100.00;99574.72;5081351;28;20202;-68
2023/11/25 02:32:59;;;;;;;1.00;0.70;;;;;;;1.09;100.00;99575.50;5076214;28;20661;-67
2023/11/25 02:35:32;;;;;;;1.15;1.05;;;;;;;1.04;100.00;99569.88;5070015;28;20568;-67
2023/11/25 02:38:06;;;;;;;0.80;0.50;;;;;;;1.11;100.00;99577.00;5093284;28;20538;-66
2023/11/25 02:40:43;;;;;;;0.80;0.50;;;;;;;1.03;100.00;99563.69;5071850;28;20195;-67
2023/11/25 02:43:16;;;;;;;0.80;0.70;;;;;;;0.98;100.00;99575.88;5074445;28;20183;-67
2023/11/25 02:45:53;;;;;;;0.80;0.60;;;;;;;0.87;100.00;99579.78;5072889;28;20216;-68
2023/11/25 02:48:26;;;;;;;1.00;0.75;;;;;;;0.90;100.00;99589.22;5063523;28;20252;-67
2023/11/25 02:51:03;;;;;;;0.80;0.50;;;;;;;0.92;100.00;99588.03;5086745;28;20191;-67
2023/11/25 02:53:35;;;;;;;0.90;0.60;;;;;;;0.84;100.00;99575.59;5065073;28;20220;-67
2023/11/25 02:56:12;;;;;;;0.80;0.60;;;;;;;0.75;100.00;99591.78;5071173;28;20207;-66
2023/11/25 02:58:48;;;;;;;0.80;0.50;;;;;;;0.75;100.00;99575.81;5091160;28;20278;-68
2023/11/25 03:01:23;;;;;;;1.33;1.23;;;;;;;0.70;100.00;99586.13;5087703;28;20196;-68
2023/11/25 03:04:04;;;;;;;0.80;0.60;;;;;;;0.55;100.00;99593.16;5069229;28;20306;-67
2023/11/25 03:06:37;;;;;;;0.80;0.60;;;;;;;0.59;100.00;99605.13;5089380;28;20195;-69
2023/11/25 03:09:17;;;;;;;0.80;0.50;;;;;;;0.63;100.00;99601.16;5077477;28;20195;-67
2023/11/25 03:11:54;;;;;;;0.80;0.50;;;;;;;0.68;100.00;99601.44;5066899;28;20188;-67
2023/11/25 03:14:26;;;;;;;8.00;0.93;;;;;;;0.77;100.00;99611.09;5070678;28;20305;-66
2023/11/25 03:16:59;;;;;;;0.93;0.82;;;;;;;0.81;100.00;99601.75;5078535;28;20226;-68
2023/11/25 03:19:32;;;;;;;1.10;1.00;;;;;;;0.85;100.00;99614.56;5072111;28;20203;-68
2023/11/25 03:22:07;;;;;;;0.80;0.50;;;;;;;0.90;100.00;99614.03;5068478;28;20194;-67
2023/11/25 03:24:41;;;;;;;0.80;0.50;;;;;;;0.88;100.00;99618.69;5076116;28;20841;-67
2023/11/25 03:27:17;;;;;;;1.35;0.70;;;;;;;0.80;100.00;99619.56;5085347;28;20215;-66
2023/11/25 03:29:52;;;;;;;2.08;1.67;;;;;;;0.78;100.00;99618.88;5072169;28;20199;-67
2023/11/25 03:32:29;;;;;;;1.00;0.55;;;;;;;0.89;100.00;99620.38;5072791;28;20248;-68
2023/11/25 03:35:06;;;;;;;2.28;0.60;;;;;;;0.91;100.00;99615.72;5070886;28;20203;-67
2023/11/25 03:37:45;;;;;;;0.80;0.40;;;;;;;0.91;100.00;99620.19;5076061;28;20203;-67
2023/11/25 03:40:19;;;;;;;1.15;1.05;;;;;;;0.86;100.00;99623.38;5077428;28;20552;-66
2023/11/25 03:42:55;;;;;;;0.80;0.50;;;;;;;0.84;100.00;99622.72;5074160;28;20187;-66
2023/11/25 03:45:27;;;;;;;1.63;0.77;;;;;;;0.93;100.00;99636.81;5089590;28;20648;-67
2023/11/25 03:48:02;;;;;;;1.10;0.75;;;;;;;0.96;100.00;99632.00;5072190;28;20684;-67
2023/11/25 03:50:39;;;;;;;0.90;0.60;;;;;;;0.92;100.00;99636.00;5070112;28;20199;-66
2023/11/25 03:53:14;;;;;;;1.67;0.60;;;;;;;0.96;100.00;99642.66;5068608;28;20195;-67
2023/11/25 03:55:50;;;;;;;6.25;1.05;;;;;;;0.93;100.00;99652.81;5082102;28;20220;-67
2023/11/25 03:58:29;;;;;;;3.28;0.73;;;;;;;0.92;100.00;99648.50;5066241;28;20278;-67
2023/11/25 04:01:03;;;;;;;2.67;2.47;;;;;;;0.84;100.00;99647.50;5076548;28;20570;-67
2023/11/25 04:03:42;;;;;;;0.80;0.50;;;;;;;0.79;100.00;99651.69;5071752;28;20737;-67
2023/11/25 04:06:22;;;;;;;0.80;0.57;;;;;;;0.73;100.00;99657.66;5083806;28;20191;-65
2023/11/25 04:08:57;;;;;;;0.80;0.50;;;;;;;0.77;100.00;99664.34;5074506;28;20191;-67
2023/11/25 04:11:30;;;;;;;4.43;0.70;;;;;;;0.86;100.00;99666.00;5077708;28;20409;-68
2023/11/25 04:14:06;;;;;;;2.58;0.95;;;;;;;0.88;100.00;99666.63;5085092;28;20213;-68
2023/11/25 04:16:40;;;;;;;0.80;0.50;;;;;;;0.88;100.00;99661.31;5081504;28;20191;-67
2023/11/25 04:19:14;;;;;;;3.40;1.02;;;;;;;0.82;100.00;99662.00;5074965;28;20189;-68
2023/11/25 04:21:50;;;;;;;0.80;0.50;;;;;;;0.84;100.00;99670.63;5057368;28;20196;-69
2023/11/25 04:24:26;;;;;;;0.90;0.65;;;;;;;0.84;100.00;99670.63;5064883;28;20231;-68
2023/11/25 04:27:07;;;;;;;1.55;0.98;;;;;;;0.99;100.00;99673.44;5052295;28;20192;-68
2023/11/25 04:29:48;;;;;;;1.55;1.15;;;;;;;1.04;100.00;99671.94;5079325;28;20230;-68
2023/11/25 04:32:22;;;;;;;0.95;0.82;;;;;;;1.01;100.00;99671.44;5061817;28;20195;-67
2023/11/25 04:34:58;;;;;;;1.63;0.82;;;;;;;1.10;100.00;99671.25;5075998;28;20207;-66
2023/11/25 04:37:33;;;;;;;0.80;0.60;;;;;;;1.12;100.00;99679.88;5082084;28;20192;-67
2023/11/25 04:40:11;;;;;;;0.80;0.60;;;;;;;1.13;100.00;99686.88;5092210;28;20194;-68
2023/11/25 04:42:48;;;;;;;5.00;1.23;;;;;;;1.10;100.00;99681.91;5070456;28;20191;-67
2023/11/25 04:45:25;;;;;;;0.80;0.60;;;;;;;1.15;100.00;99694.72;5071596;28;20586;-67
2023/11/25 04:48:00;;;;;;;3.05;0.73;;;;;;;1.13;100.00;99692.22;5084247;28;20566;-67
2023/11/25 04:50:34;;;;;;;0.80;0.77;;;;;;;1.12;100.00;99690.53;5072701;28;20195;-67
2023/11/25 04:53:10;;;;;;;1.70;0.80;;;;;;;1.13;100.00;99692.22;5088136;28;20230;-69
2023/11/25 04:55:48;;;;;;;1.88;1.77;;;;;;;1.08;100.00;99688.41;5083856;28;20207;-68
2023/11/25 04:58:23;;;;;;;0.90;0.50;;;;;;;1.15;100.00;99689.38;5071921;28;20191;-67
2023/11/25 05:00:59;;;;;;;1.10;0.60;;;;;;;1.16;100.00;99696.38;5078532;28;20218;-67
2023/11/25 05:03:33;;;;;;;1.10;0.80;;;;;;;1.19;100.00;99686.22;5081431;28;20298;-67
2023/11/25 05:06:09;;;;;;;1.15;0.95;;;;;;;1.08;100.00;99707.88;5081312;28;20244;-66
2023/11/25 05:08:45;;;;;;;0.80;0.50;;;;;;;0.99;100.00;99713.41;5072698;28;20248;-67
2023/11/25 05:11:20;;;;;;;2.95;1.40;;;;;;;0.96;100.00;99711.91;5087332;28;20207;-68
2023/11/25 05:13:53;;;;;;;2.65;1.80;;;;;;;1.01;100.00;99725.56;5064308;28;20337;-67
2023/11/25 05:16:33;;;;;;;0.80;0.63;;;;;;;0.95;100.00;99722.72;5068808;28;20215;-65
2023/11/25 05:19:07;;;;;;;0.80;0.60;;;;;;;0.97;100.00;99721.53;5083226;28;20214;-67
2023/11/25 05:21:42;;;;;;;0.80;0.60;;;;;;;0.92;100.00;99731.88;5066300;28;20195;-66
2023/11/25 05:24:18;;;;;;;1.10;0.57;;;;;;;0.91;100.00;99735.56;5073463;28;20780;-67
2023/11/25 05:26:53;;;;;;;3.20;0.90;;;;;;;0.97;100.00;99739.38;5093752;28;20768;-67
2023/11/25 05:29:26;;;;;;;1.75;0.70;;;;;;;0.91;100.00;99734.72;5083006;28;20592;-68
2023/11/25 05:32:03;;;;;;;0.90;0.60;;;;;;;0.88;100.00;99744.69;5077937;28;20230;-68
2023/11/25 05:34:40;;;;;;;0.90;0.80;;;;;;;0.91;100.00;99740.88;5093106;28;20215;-68
2023/11/25 05:37:14;;;;;;;0.90;0.60;;;;;;;0.87;100.00;99747.56;5087736;28;20672;-67
2023/11/25 05:39:51;;;;;;;0.80;0.70;;;;;;;0.77;100.00;99749.56;5085582;28;20199;-67
2023/11/25 05:42:29;;;;;;;2.33;2.13;;;;;;;0.67;100.00;99746.22;5092365;28;20194;-65
2023/11/25 05:45:02;;;;;;;0.80;0.52;;;;;;;0.65;100.00;99745.53;5075517;28;20220;-67
2023/11/25 05:47:43;;;;;;;1.70;1.23;;;;;;;0.60;100.00;99751.38;5092345;28;20584;-67
2023/11/25 05:50:22;;;;;;;2.95;1.45;;;;;;;0.53;100.00;99752.22;5071558;28;20196;-67
2023/11/25 05:52:57;;;;;;;0.90;0.70;;;;;;;0.47;100.00;99763.50;5077576;28;20680;-67
2023/11/25 05:55:31;;;;;;;1.08;0.93;;;;;;;0.44;100.00;99765.50;5073700;28;20215;-67
2023/11/25 05:58:07;;;;;;;1.02;0.82;;;;;;;0.41;100.00;99765.84;5080247;28;20192;-66
2023/11/25 06:00:41;;;;;;;1.38;0.80;;;;;;;0.32;100.00;99769.50;5091531;28;20268;-67
2023/11/25 06:03:24;;;;;;;1.00;0.70;;;;;;;0.31;100.00;99764.31;5068589;28;20199;-67
2023/11/25 06:06:07;;;;;;;0.80;0.60;;;;;;;0.29;100.00;99769.00;5077424;28;20191;-68
2023/11/25 06:08:44;;;;;;;2.05;1.58;;;;;;;0.23;100.00;99767.81;5073736;28;20584;-67
2023/11/25 06:11:26;;;;;;;2.45;0.95;;;;;;;0.22;100.00;99760.81;5081894;28;20191;-66
2023/11/25 06:13:59;;;;;;;0.80;0.70;;;;;;;0.21;100.00;99769.78;5068239;28;20223;-67
2023/11/25 06:16:34;;;;;;;1.20;1.00;;;;;;;0.20;100.00;99772.59;5088168;28;20723;-67
2023/11/25 06:19:13;;;;;;;1.33;0.80;;;;;;;0.17;100.00;99770.28;5071521;28;20202;-67
2023/11/25 06:21:47;;;;;;;1.95;1.70;;;;;;;0.16;100.00;99780.09;5079027;28;20191;-68
2023/11/25 06:24:24;;;;;;;2.17;1.27;;;;;;;0.15;100.00;99782.91;5073316;28;20302;-68
2023/11/25 06:26:57;;;;;;;1.10;0.90;;;;;;;0.11;100.00;99778.91;5087956;28;20176;-68
2023/11/25 06:29:34;;;;;;;0.82;0.70;;;;;;;0.07;100.00;99777.56;5083241;28;20249;-68
2023/11/25 06:32:09;;;;;;;2.15;1.23;;;;;;;0.07;100.00;99777.56;5063226;28;20186;-67
2023/11/25 06:34:45;;;;;;;0.82;0.63;;;;;;;0.11;100.00;99778.91;5066416;28;20212;-68
2023/11/25 06:37:21;;;;;;;1.67;1.25;;;;;;;0.09;100.00;99772.94;5064775;28;20588;-66
2023/11/25 06:39:59;;;;;;;2.20;1.67;;;;;;;0.07;100.00;99777.56;5084162;28;20190;-67
2023/11/25 06:42:35;;;;;;;2.65;0.70;;;;;;;0.06;100.00;99775.91;5066465;28;20198;-68
2023/11/25 06:45:13;;;;;;;2.15;1.20;;;;;;;0.03;100.00;99779.72;5068679;28;20211;-67
2023/11/25 06:47:49;;;;;;;0.80;0.50;;;;;;;0.00;100.00;99780.06;5086257;28;20211;-66
2023/11/25 06:50:28;;;;;;;0.90;0.60;;;;;;;-0.01;100.00;99775.72;5054930;28;20556;-66
2023/11/25 06:53:07;;;;;;;0.88;0.65;;;;;;;0.08;100.00;99776.56;5083610;28;20180;-69
2023/11/25 06:55:45;;;;;;;4.20;0.95;;;;;;;0.16;100.00;99785.41;5079912;28;20276;-68
2023/11/25 06:58:19;;;;;;;1.10;0.98;;;;;;;0.18;100.00;99791.41;5079278;28;20693;-68
2023/11/25 07:01:04;;;;;;;1.20;0.80;;;;;;;0.23;100.00;99789.09;5075504;28;20188;-67
2023/11/25 07:03:41;;;;;;;0.93;0.82;;;;;;;0.30;100.00;99779.44;5070471;28;20222;-67
2023/11/25 07:06:33;;;;;;;1.00;0.88;;;;;;;0.42;100.00;99788.81;5079460;28;20191;-66
2023/11/25 07:09:13;;;;;;;5.03;2.38;;;;;;;0.44;100.00;99793.94;5081584;28;20295;-68
2023/11/25 07:11:51;;;;;;;1.50;0.70;;;;;;;0.53;100.00;99789.47;5072679;28;20196;-67
2023/11/25 07:14:27;;;;;;;0.80;0.60;;;;;;;0.51;100.00;99802.94;5088471;28;20227;-66
2023/11/25 07:17:06;;;;;;;0.85;0.70;;;;;;;0.56;100.00;99799.78;5075634;28;20211;-68
2023/11/25 07:19:44;;;;;;;0.80;0.70;;;;;;;0.55;100.00;99803.44;5069832;28;20241;-68
2023/11/25 07:22:21;;;;;;;0.80;0.50;;;;;;;0.59;100.00;99810.94;5082894;28;20196;-66
2023/11/25 07:24:56;;;;;;;2.17;0.60;;;;;;;0.64;100.00;99799.78;5085706;28;20243;-67
2023/11/25 07:27:33;;;;;;;2.38;0.80;;;;;;;0.67;100.00;99804.81;5067723;28;20188;-66
2023/11/25 07:30:14;;;;;;;0.80;0.60;;;;;;;0.74;100.00;99803.13;5063495;28;20199;-66
2023/11/25 07:32:55;;;;;;;0.95;0.77;;;;;;;0.79;100.00;99803.47;5076032;28;20201;-67
2023/11/25 07:35:32;;;;;;;1.02;0.93;;;;;;;0.77;100.00;99797.50;5074939;28;20292;-68
2023/11/25 07:38:17;;;;;;;0.80;0.60;;;;;;;0.74;100.00;99793.31;5072979;28;20219;-67
2023/11/25 07:41:00;;;;;;;1.40;0.63;;;;;;;0.74;100.00;99803.13;5055334;28;20283;-67
2023/11/25 07:43:44;;;;;;;1.33;0.88;;;;;;;0.66;100.00;99790.66;5066173;28;20223;-66
2023/11/25 07:46:23;;;;;;;1.45;0.88;;;;;;;0.64;100.00;99797.13;5066020;28;20180;-66
2023/11/25 07:49:00;;;;;;;1.00;0.80;;;;;;;0.51;100.00;99799.44;5072461;28;20218;-66
2023/11/25 07:51:48;;;;;;;0.80;0.65;;;;;;;0.55;100.00;99798.13;5075598;28;20196;-67
2023/11/25 07:54:30;;;;;;;0.80;0.50;;;;;;;0.51;100.00;99802.09;5071453;28;20643;-67
2023/11/25 07:57:08;;;;;;;1.90;1.27;;;;;;;0.54;100.00;99796.44;5070497;28;20214;-67
2023/11/25 07:59:44;;;;;;;1.23;0.70;;;;;;;0.54;100.00;99796.44;5066564;28;20558;-67
2023/11/25 08:02:19;;;;;;;1.38;0.60;;;;;;;0.57;100.00;99796.13;5069105;28;20223;-66
2023/11/25 08:04:57;;;;;;;0.80;0.50;;;;;;;0.53;100.00;99802.78;5063368;28;20796;-68
2023/11/25 08:07:32;;;;;;;2.15;0.70;;;;;;;0.55;100.00;99804.28;5076611;28;20214;-67
2023/11/25 08:10:19;;;;;;;0.80;0.50;;;;;;;0.61;100.00;99806.28;5075561;28;20223;-67
2023/11/25 08:12:55;;;;;;;1.48;1.20;;;;;;;0.75;100.00;99815.44;5082602;28;20192;-67
2023/11/25 08:15:32;;;;;;;0.90;0.60;;;;;;;0.80;100.00;99818.44;5082847;28;20238;-67
2023/11/25 08:18:08;;;;;;;0.90;0.60;;;;;;;1.03;100.00;99819.44;5068170;28;20219;-66
2023/11/25 08:20:48;;;;;;;0.80;0.50;;;;;;;1.08;100.00;99817.09;5075118;28;20287;-66
2023/11/25 08:23:36;;;;;;;0.80;0.50;;;;;;;1.24;100.00;99817.09;5080712;28;20206;-68
2023/11/25 08:26:28;;;;;;;0.80;0.60;;;;;;;1.43;100.00;99812.41;5082324;28;20184;-68
2023/11/25 08:29:03;;;;;;;5.55;1.35;;;;;;;1.53;100.00;99807.72;5047217;28;20229;-67
2023/11/25 08:31:40;;;;;;;1.45;0.98;;;;;;;1.68;100.00;99809.53;5075954;28;20192;-68
2023/11/25 08:34:18;;;;;;;1.17;0.70;;;;;;;1.62;100.00;99806.69;5073255;28;20712;-67
2023/11/25 08:36:55;;;;;;;1.02;0.70;;;;;;;1.62;100.00;99798.69;5066480;28;20231;-69
2023/11/25 08:39:35;;;;;;;0.90;0.70;;;;;;;1.70;100.00;99806.66;5061870;28;20187;-67
2023/11/25 08:42:14;;;;;;;3.00;0.75;;;;;;;1.75;100.00;99805.16;5067453;28;20259;-66
2023/11/25 08:44:51;;;;;;;0.80;0.50;;;;;;;1.73;100.00;99803.66;5087648;28;20223;-67
2023/11/25 08:47:35;;;;;;;3.20;1.33;;;;;;;1.84;100.00;99803.28;5072734;28;20196;-67
2023/11/25 08:50:15;;;;;;;1.80;0.85;;;;;;;1.93;100.00;99806.75;5070501;28;20674;-68
2023/11/25 08:52:54;;;;;;;0.80;0.60;;;;;;;2.14;100.00;99809.66;5069065;28;20204;-68
2023/11/25 08:55:27;;;;;;;0.80;0.60;;;;;;;2.36;100.00;99814.22;5070942;28;20698;-67
2023/11/25 08:58:07;;;;;;;0.80;0.60;;;;;;;2.73;100.00;99820.66;5082033;28;20200;-67
2023/11/25 09:00:51;;;;;;;1.40;1.30;;;;;;;3.23;100.00;99818.25;5057482;28;20311;-67
2023/11/25 09:03:25;;;;;;;0.80;0.50;;;;;;;3.34;97.41;99830.34;5071315;28;20194;-68
2023/11/25 09:06:02;;;;;;;0.80;0.50;;;;;;;2.99;96.44;99839.84;5080947;28;20263;-66
2023/11/25 09:08:38;;;;;;;1.20;0.80;;;;;;;3.05;97.39;99826.56;5057619;28;20199;-67
2023/11/25 09:11:12;;;;;;;3.72;0.95;;;;;;;2.93;97.39;99836.03;5092262;28;20187;-68
2023/11/25 09:13:47;;;;;;;0.80;0.50;;;;;;;3.14;98.53;99823.84;5076909;28;20222;-67
2023/11/25 09:16:21;;;;;;;1.63;0.70;;;;;;;3.14;96.59;99829.19;5063273;28;20201;-67
2023/11/25 09:19:02;;;;;;;1.00;0.57;;;;;;;3.18;96.52;99825.97;5066890;28;20191;-66
2023/11/25 09:21:37;;;;;;;1.10;0.70;;;;;;;3.04;97.60;99824.94;5072354;28;20678;-67
2023/11/25 09:24:10;;;;;;;2.03;1.23;;;;;;;3.17;97.42;99820.81;5087221;28;20234;-67
2023/11/25 09:26:46;;;;;;;0.80;0.50;;;;;;;3.09;96.76;99823.56;5075321;28;20219;-68
2023/11/25 09:29:22;;;;;;;0.80;0.55;;;;;;;2.89;95.02;99832.06;5086268;28;20505;-67
2023/11/25 09:31:56;;;;;;;1.30;0.70;;;;;;;2.95;97.91;99830.53;5083849;28;20202;-67
2023/11/25 09:34:30;;;;;;;1.70;0.70;;;;;;;3.03;97.15;99817.91;5093353;28;20211;-66
2023/11/25 09:37:08;;;;;;;1.52;1.38;;;;;;;3.21;97.14;99822.09;5081483;28;20203;-67
2023/11/25 09:39:44;;;;;;;0.80;0.55;;;;;;;3.05;95.74;99815.03;5087214;28;20211;-67
2023/11/25 09:42:19;;;;;;;1.10;0.60;;;;;;;3.15;96.49;99814.81;5072611;28;20191;-68
2023/11/25 09:44:59;;;;;;;0.93;0.70;;;;;;;3.11;95.82;99808.16;5084639;28;20796;-67
2023/11/25 09:47:37;;;;;;;1.23;1.13;;;;;;;3.27;96.93;99808.84;5091850;28;20199;-67
2023/11/25 09:50:13;;;;;;;0.90;0.60;;;;;;;3.24;95.75;99800.38;5085092;28;20215;-66
2023/11/25 09:52:54;;;;;;;0.80;0.50;;;;;;;3.28;97.13;99794.47;5083644;28;20193;-67
2023/11/25 09:55:31;;;;;;;0.80;0.50;;;;;;;3.09;96.34;99791.50;5069430;28;20585;-67
2023/11/25 09:58:17;;;;;;;0.80;0.50;;;;;;;3.03;96.82;99783.19;5076645;28;20208;-68
2023/11/25 10:00:54;;;;;;;1.20;1.00;;;;;;;3.18;97.94;99772.53;5059089;28;20242;-64
2023/11/25 10:03:31;;;;;;;1.25;0.95;;;;;;;3.43;97.26;99773.09;5069518;28;20216;-66
2023/11/25 10:06:05;;;;;;;1.60;0.88;;;;;;;3.69;96.47;99781.50;5066919;28;20192;-67
2023/11/25 10:08:40;;;;;;;1.77;0.98;;;;;;;3.87;94.97;99786.47;5090317;28;20183;-67
2023/11/25 10:11:17;;;;;;;1.30;1.02;;;;;;;3.89;93.73;99781.75;5071460;28;20259;-67
2023/11/25 10:13:50;;;;;;;0.90;0.68;;;;;;;3.57;93.41;99782.97;5075271;28;20249;-67
2023/11/25 10:16:33;;;;;;;2.75;0.80;;;;;;;3.58;95.77;99781.13;5079711;28;20230;-68
2023/11/25 10:19:19;;;;;;;1.17;0.50;;;;;;;3.68;94.22;99785.16;5072553;28;20253;-67
2023/11/25 10:21:56;;;;;;;1.58;0.77;;;;;;;3.73;96.16;99781.94;5061525;28;20188;-66
2023/11/25 10:24:35;;;;;;;4.63;0.65;;;;;;;3.71;97.27;99775.97;5075713;28;20227;-67
2023/11/25 10:27:08;;;;;;;2.30;1.88;;;;;;;3.92;94.58;99774.19;5077657;28;20203;-67
2023/11/25 10:29:42;;;;;;;1.35;0.75;;;;;;;3.86;95.14;99772.28;5071089;28;20276;-67
2023/11/25 10:36:56;;;;;;;3.47;0.75;;;;;;;3.75;95.62;99766.53;5084818;28;20240;-67
2023/11/25 10:39:34;;;;;;;1.75;1.23;;;;;;;3.73;96.36;99763.22;5076729;28;20192;-67
2023/11/25 10:42:07;;;;;;;1.58;0.70;;;;;;;3.68;97.03;99755.75;5075922;28;20195;-68
2023/11/25 10:44:44;;;;;;;1.58;0.60;;;;;;;3.72;96.91;99757.06;5068231;28;20307;-66
2023/11/25 10:47:35;;;;;;;1.00;0.60;;;;;;;3.97;96.87;99762.09;5092813;28;20680;-66
2023/11/25 10:50:14;;;;;;;4.50;0.88;;;;;;;3.99;96.60;99760.06;5074393;28;20568;-68
2023/11/25 10:52:58;;;;;;;1.20;0.88;;;;;;;4.16;95.85;99770.38;5060399;28;20572;-66
2023/11/25 10:55:35;;;;;;;4.50;0.80;;;;;;;4.22;96.41;99766.09;5065635;28;20215;-67
2023/11/25 10:58:15;;;;;;;2.75;1.40;;;;;;;4.09;96.42;99760.59;5065559;28;20256;-68
2023/11/25 11:00:52;;;;;;;1.95;0.80;;;;;;;3.85;97.16;99756.38;5064860;28;20567;-67
2023/11/25 11:03:47;;;;;;;1.85;0.90;;;;;;;3.67;98.56;99761.31;5079029;28;20187;-67
2023/11/25 11:06:34;;;;;;;1.75;0.90;;;;;;;3.51;99.34;99748.94;5081731;28;20634;-67
2023/11/25 11:09:16;;;;;;;1.27;0.90;;;;;;;3.67;99.64;99751.44;5073949;28;20250;-68
2023/11/25 11:11:57;;;;;;;1.80;0.90;;;;;;;3.87;100.00;99751.69;5071183;28;20195;-68
2023/11/25 11:14:36;;;;;;;1.50;0.68;;;;;;;3.91;99.56;99752.97;5076986;28;20219;-66
2023/11/25 11:17:26;;;;;;;2.38;0.95;;;;;;;3.86;99.91;99753.53;5074908;28;20191;-68
2023/11/25 11:20:05;;;;;;;2.92;1.15;;;;;;;3.69;99.76;99759.25;5070773;28;20659;-67
2023/11/25 11:22:41;;;;;;;1.50;1.25;;;;;;;3.67;100.00;99756.78;5080065;28;20229;-66
2023/11/25 11:25:41;;;;;;;0.90;0.52;;;;;;;3.70;100.00;99753.72;5076726;28;20224;-67
2023/11/25 11:28:24;;;;;;;1.15;1.05;;;;;;;3.55;100.00;99755.56;5082556;28;20194;-67
2023/11/25 11:31:40;;;;;;;0.90;0.77;;;;;;;3.65;100.00;99752.63;5075791;28;20270;-67
2023/11/25 11:34:15;;;;;;;0.80;0.60;;;;;;;3.86;100.00;99756.22;5066150;28;20215;-66
2023/11/25 11:36:54;;;;;;;1.25;0.70;;;;;;;3.68;100.00;99763.78;5085019;28;20191;-66
2023/11/25 11:39:58;;;;;;;6.18;0.90;;;;;;;3.68;100.00;99758.41;5082252;28;20225;-68
2023/11/25 11:42:39;;;;;;;1.42;0.95;;;;;;;3.56;100.00;99762.59;5066839;28;20203;-67
2023/11/25 11:45:17;;;;;;;3.40;1.58;;;;;;;3.57;100.00;99747.38;5072113;28;20221;-67
2023/11/25 11:47:57;;;;;;;0.90;0.70;;;;;;;3.73;100.00;99739.97;5061460;28;20681;-68
2023/11/25 11:50:38;;;;;;;1.17;1.08;;;;;;;3.82;100.00;99738.88;5101500;28;20194;-69
2023/11/25 11:53:28;;;;;;;0.80;0.60;;;;;;;3.89;100.00;99750.47;5081517;28;20557;-67
2023/11/25 11:56:06;;;;;;;1.00;0.60;;;;;;;3.79;100.00;99735.72;5056885;28;20207;-67
2023/11/25 11:59:08;;;;;;;0.90;0.70;;;;;;;3.84;100.00;99731.47;5078690;28;20207;-66
2023/11/25 12:01:48;;;;;;;1.45;1.27;;;;;;;3.84;100.00;99730.63;5070155;28;20202;-67
2023/11/25 12:04:26;;;;;;;1.00;0.90;;;;;;;3.93;100.00;99724.16;5082842;28;20316;-66
2023/11/25 12:07:05;;;;;;;4.40;1.13;;;;;;;3.76;100.00;99728.91;5073495;28;20210;-68
2023/11/25 12:09:50;;;;;;;1.63;1.02;;;;;;;3.86;100.00;99729.44;5098002;28;20555;-68
2023/11/25 12:12:28;;;;;;;1.00;0.90;;;;;;;3.43;100.00;99733.00;5068617;28;20567;-67
2023/11/25 12:15:13;;;;;;;5.43;1.10;;;;;;;3.37;100.00;99733.72;5070784;28;20242;-67
2023/11/25 12:17:57;;;;;;;6.10;0.70;;;;;;;3.33;100.00;99735.09;5090170;28;20313;-67
2023/11/25 12:20:41;;;;;;;2.95;0.80;;;;;;;3.32;100.00;99730.75;5082244;28;20207;-68
2023/11/25 12:23:17;;;;;;;1.38;0.90;;;;;;;3.20;100.00;99732.22;5074066;28;20199;-65
2023/11/25 12:25:52;;;;;;;1.10;0.85;;;;;;;3.35;100.00;99727.72;5074934;28;20192;-68